createdAt,value
2017-05-22T00:02:02.559Z,11.60
2017-05-22T00:04:30.240Z,11.50
2017-05-22T00:06:57.881Z,11.60
2017-05-22T00:09:25.849Z,11.60
2017-05-22T00:11:53.498Z,11.50
2017-05-22T00:14:21.143Z,11.50
2017-05-22T00:16:48.817Z,11.40
2017-05-22T00:19:17.299Z,11.30
2017-05-22T00:21:45.247Z,11.30
2017-05-22T00:24:12.897Z,11.30
2017-05-22T00:26:40.545Z,11.20
2017-05-22T00:29:08.229Z,11.20
2017-05-22T00:31:35.873Z,11.10
2017-05-22T00:34:04.597Z,11.00
2017-05-22T00:36:32.240Z,11.00
2017-05-22T00:38:59.892Z,11.00
2017-05-22T00:41:27.570Z,11.00
2017-05-22T00:43:55.222Z,10.90
2017-05-22T00:46:23.213Z,10.80
2017-05-22T00:48:51.628Z,10.80
2017-05-22T00:51:19.267Z,10.80
2017-05-22T00:53:47.714Z,10.60
2017-05-22T00:56:16.162Z,10.60
2017-05-22T00:58:44.179Z,10.50
2017-05-22T01:01:11.827Z,10.50
2017-05-22T01:03:39.485Z,10.50
2017-05-22T01:06:07.155Z,10.40
2017-05-22T01:08:34.810Z,10.40
2017-05-22T01:11:03.563Z,10.30
2017-05-22T01:13:31.210Z,10.30
2017-05-22T01:15:58.855Z,10.30
2017-05-22T01:18:26.649Z,10.30
2017-05-22T01:20:54.302Z,10.30
2017-05-22T01:23:22.418Z,10.20
2017-05-22T01:25:50.062Z,10.20
2017-05-22T01:28:18.505Z,10.10
2017-05-22T01:30:46.178Z,10.00
2017-05-22T01:33:14.594Z,10.00
2017-05-22T01:35:42.540Z,10.00
2017-05-22T01:38:10.185Z,10.00
2017-05-22T01:40:37.834Z,9.90
2017-05-22T01:43:06.266Z,9.80
2017-05-22T01:45:34.672Z,9.70
2017-05-22T01:48:03.526Z,9.70
2017-05-22T01:50:31.174Z,9.60
2017-05-22T01:52:58.826Z,9.70
2017-05-22T01:55:27.283Z,9.50
2017-05-22T01:57:54.925Z,9.50
2017-05-22T02:00:22.872Z,9.50
2017-05-22T02:02:51.284Z,9.50
2017-05-22T02:05:18.925Z,9.40
2017-05-22T02:07:46.589Z,9.40
2017-05-22T02:10:14.234Z,9.40
2017-05-22T02:12:42.179Z,9.40
2017-05-22T02:15:10.588Z,9.40
2017-05-22T02:17:38.237Z,9.30
2017-05-22T02:20:06.672Z,9.30
2017-05-22T02:22:34.313Z,9.20
2017-05-22T02:25:02.275Z,9.30
2017-05-22T02:27:30.699Z,9.20
2017-05-22T02:29:58.351Z,9.20
2017-05-22T02:32:26.029Z,9.20
2017-05-22T02:34:53.690Z,9.20
2017-05-22T02:37:21.631Z,9.20
2017-05-22T02:39:49.281Z,9.20
2017-05-22T02:42:16.917Z,9.20
2017-05-22T02:44:44.583Z,9.20
2017-05-22T02:47:12.228Z,9.10
2017-05-22T02:49:40.297Z,9.00
2017-05-22T02:52:07.941Z,9.00
2017-05-22T02:54:35.579Z,9.00
2017-05-22T02:57:04.014Z,8.90
2017-05-22T02:59:32.429Z,8.80
2017-05-22T03:02:00.367Z,8.80
2017-05-22T03:04:28.011Z,8.90
2017-05-22T03:06:56.444Z,8.80
2017-05-22T03:09:24.113Z,8.70
2017-05-22T03:11:52.521Z,8.70
2017-05-22T03:14:21.286Z,8.70
2017-05-22T03:16:48.947Z,8.60
2017-05-22T03:19:16.603Z,8.70
2017-05-22T03:21:44.276Z,8.70
2017-05-22T03:24:12.685Z,8.70
2017-05-22T03:26:41.432Z,8.70
2017-05-22T03:29:09.072Z,8.60
2017-05-22T03:31:36.729Z,8.70
2017-05-22T03:34:04.397Z,8.70
2017-05-22T03:36:32.050Z,8.70
2017-05-22T03:39:00.789Z,8.70
2017-05-22T03:41:28.474Z,8.60
2017-05-22T03:43:56.118Z,8.70
2017-05-22T03:46:23.776Z,8.70
2017-05-22T03:48:51.415Z,8.70
2017-05-22T03:51:19.372Z,8.70
2017-05-22T03:53:47.019Z,8.70
2017-05-22T03:56:15.426Z,8.80
2017-05-22T03:58:43.865Z,8.80
2017-05-22T04:01:11.500Z,8.70
2017-05-22T04:03:40.219Z,8.90
2017-05-22T04:06:08.633Z,8.90
2017-05-22T04:08:36.285Z,8.80
2017-05-22T04:11:03.944Z,8.90
2017-05-22T04:13:32.346Z,9.00
2017-05-22T04:16:00.010Z,9.00
2017-05-22T04:18:27.687Z,9.10
2017-05-22T04:20:56.123Z,9.30
2017-05-22T04:23:24.073Z,9.20
2017-05-22T04:25:51.760Z,9.30
2017-05-22T04:28:19.402Z,9.40
2017-05-22T04:30:47.409Z,9.50
2017-05-22T04:33:15.052Z,9.60
2017-05-22T04:35:43.489Z,10.00
2017-05-22T04:38:11.168Z,10.00
2017-05-22T04:40:38.865Z,10.20
2017-05-22T04:43:06.877Z,10.40
2017-05-22T04:45:34.522Z,10.60
2017-05-22T04:48:02.175Z,10.80
2017-05-22T04:50:29.840Z,11.00
2017-05-22T04:52:57.545Z,11.10
2017-05-22T04:55:25.640Z,11.20
2017-05-22T04:57:53.306Z,11.30
2017-05-22T05:00:20.947Z,11.50
2017-05-22T05:02:48.628Z,11.70
2017-05-22T05:05:16.308Z,11.80
2017-05-22T05:07:44.369Z,11.90
2017-05-22T05:10:12.787Z,12.40
2017-05-22T05:12:41.216Z,12.60
2017-05-22T05:15:08.878Z,12.50
2017-05-22T05:17:37.289Z,12.80
2017-05-22T05:20:05.251Z,12.80
2017-05-22T05:22:33.720Z,13.20
2017-05-22T05:25:01.369Z,13.10
2017-05-22T05:27:29.063Z,13.40
2017-05-22T05:29:56.800Z,13.60
2017-05-22T05:32:24.741Z,13.90
2017-05-22T05:34:52.402Z,14.10
2017-05-22T05:37:20.045Z,14.50
2017-05-22T05:39:47.741Z,14.70
2017-05-22T05:42:15.405Z,15.10
2017-05-22T05:44:43.338Z,15.40
2017-05-22T05:47:10.992Z,15.60
2017-05-22T05:49:39.424Z,16.20
2017-05-22T05:52:07.091Z,16.20
2017-05-22T05:54:35.502Z,16.90
2017-05-22T05:57:03.553Z,16.80
2017-05-22T05:59:31.214Z,17.40
2017-05-22T06:01:58.875Z,18.00
2017-05-22T06:04:26.548Z,18.40
2017-05-22T06:06:54.951Z,19.00
2017-05-22T06:09:23.717Z,19.30
2017-05-22T06:11:52.123Z,19.50
2017-05-22T06:14:19.747Z,19.40
2017-05-22T06:16:47.409Z,19.80
2017-05-22T06:19:15.803Z,20.70
2017-05-22T06:21:43.814Z,20.60
2017-05-22T06:24:11.441Z,21.20
2017-05-22T06:26:39.838Z,21.50
2017-05-22T06:29:07.496Z,21.50
2017-05-22T06:31:35.122Z,22.00
2017-05-22T06:34:03.043Z,22.20
2017-05-22T06:36:30.654Z,22.50
2017-05-22T06:38:59.048Z,23.20
2017-05-22T06:41:27.460Z,23.20
2017-05-22T06:43:55.074Z,23.10
2017-05-22T06:46:23.026Z,23.00
2017-05-22T06:48:52.381Z,23.10
2017-05-22T06:51:20.763Z,23.10
2017-05-22T06:53:48.412Z,23.00
2017-05-22T06:56:16.025Z,22.90
2017-05-22T06:58:44.706Z,23.60
2017-05-22T07:01:12.335Z,23.50
2017-05-22T07:03:39.953Z,23.80
2017-05-22T07:06:08.366Z,23.50
2017-05-22T07:08:35.983Z,23.40
2017-05-22T07:11:03.921Z,23.50
2017-05-22T07:13:32.313Z,22.60
2017-05-22T07:15:59.947Z,22.50
2017-05-22T07:18:27.609Z,22.50
2017-05-22T07:20:55.245Z,22.40
2017-05-22T07:23:23.257Z,22.90
2017-05-22T07:25:50.900Z,23.30
2017-05-22T07:28:19.290Z,23.10
2017-05-22T07:30:47.696Z,23.80
2017-05-22T07:33:15.312Z,23.70
2017-05-22T07:35:44.008Z,23.40
2017-05-22T07:38:11.640Z,23.30
2017-05-22T07:40:39.267Z,23.40
2017-05-22T07:43:06.911Z,22.70
2017-05-22T07:45:34.547Z,22.70
2017-05-22T07:48:02.589Z,23.40
2017-05-22T07:50:30.262Z,23.80
2017-05-22T07:52:58.658Z,24.50
2017-05-22T07:55:26.325Z,24.40
2017-05-22T07:57:53.959Z,24.60
2017-05-22T08:00:22.661Z,24.10
2017-05-22T08:02:50.286Z,24.10
2017-05-22T08:05:18.687Z,24.80
2017-05-22T08:07:46.345Z,24.70
2017-05-22T08:10:13.965Z,24.80
2017-05-22T08:12:41.911Z,24.20
2017-05-22T08:15:09.558Z,24.30
2017-05-22T08:17:37.185Z,25.50
2017-05-22T08:20:04.828Z,25.70
2017-05-22T08:22:32.446Z,26.20
2017-05-22T08:25:00.473Z,26.30
2017-05-22T08:27:28.096Z,25.90
2017-05-22T08:29:55.724Z,25.20
2017-05-22T08:32:23.366Z,23.80
2017-05-22T08:34:50.987Z,23.50
2017-05-22T08:37:18.933Z,24.10
2017-05-22T08:39:46.560Z,24.00
2017-05-22T08:42:14.191Z,25.10
2017-05-22T08:44:41.831Z,25.80
2017-05-22T08:47:09.444Z,25.80
2017-05-22T08:49:37.375Z,26.50
2017-05-22T08:52:05.002Z,26.00
2017-05-22T08:54:32.624Z,25.70
2017-05-22T08:57:00.272Z,25.80
2017-05-22T08:59:27.911Z,25.70
2017-05-22T09:01:56.581Z,25.00
2017-05-22T09:04:24.211Z,24.90
2017-05-22T09:06:51.848Z,25.80
2017-05-22T09:09:19.493Z,25.50
2017-05-22T09:11:47.118Z,25.30
2017-05-22T09:14:15.130Z,25.10
2017-05-22T09:16:42.754Z,25.60
2017-05-22T09:19:10.372Z,25.50
2017-05-22T09:21:38.783Z,25.00
2017-05-22T09:24:07.181Z,23.60
2017-05-22T09:26:35.130Z,23.60
2017-05-22T09:29:03.525Z,23.10
2017-05-22T09:31:31.148Z,23.00
2017-05-22T09:33:59.172Z,22.80
2017-05-22T09:36:26.793Z,23.50
2017-05-22T09:38:54.421Z,24.20
2017-05-22T09:41:22.837Z,23.50
2017-05-22T09:43:50.465Z,23.50
2017-05-22T09:46:18.416Z,23.50
2017-05-22T09:48:46.805Z,23.10
2017-05-22T09:51:14.429Z,23.10
2017-05-22T09:53:42.854Z,22.60
2017-05-22T09:56:11.057Z,22.50
2017-05-22T09:58:39.017Z,22.70
2017-05-22T10:01:06.642Z,23.10
2017-05-22T10:03:34.265Z,23.20
2017-05-22T10:06:01.925Z,23.30
2017-05-22T10:08:30.323Z,22.30
2017-05-22T10:10:58.244Z,22.20
2017-05-22T10:13:26.081Z,22.50
2017-05-22T10:15:54.486Z,22.90
2017-05-22T10:18:22.155Z,22.90
2017-05-22T10:20:49.804Z,22.40
2017-05-22T10:23:17.854Z,22.00
2017-05-22T10:25:45.482Z,21.90
2017-05-22T10:28:13.121Z,21.40
2017-05-22T10:30:41.545Z,21.10
2017-05-22T10:33:09.171Z,21.00
2017-05-22T10:35:37.197Z,21.10
2017-05-22T10:38:04.818Z,21.30
2017-05-22T10:40:32.449Z,21.50
2017-05-22T10:43:00.107Z,21.70
2017-05-22T10:45:27.770Z,21.70
2017-05-22T10:47:55.800Z,21.90
2017-05-22T10:50:24.198Z,22.40
2017-05-22T10:52:51.845Z,22.30
2017-05-22T10:55:19.525Z,22.60
2017-05-22T10:57:47.154Z,22.50
2017-05-22T11:00:15.862Z,22.10
2017-05-22T11:02:44.267Z,21.90
2017-05-22T11:05:12.655Z,21.60
2017-05-22T11:07:40.312Z,21.60
2017-05-22T11:10:07.953Z,22.00
2017-05-22T11:12:36.632Z,21.70
2017-05-22T11:15:04.250Z,21.60
2017-05-22T11:17:32.640Z,21.70
2017-05-22T11:20:01.068Z,21.70
2017-05-22T11:22:29.468Z,21.20
2017-05-22T11:24:57.601Z,21.20
2017-05-22T11:27:25.234Z,21.10
2017-05-22T11:29:53.632Z,20.90
2017-05-22T11:32:21.292Z,20.80
2017-05-22T11:34:48.925Z,21.30
2017-05-22T11:37:16.849Z,21.60
2017-05-22T11:39:44.492Z,21.20
2017-05-22T11:42:12.886Z,20.70
2017-05-22T11:44:40.548Z,20.70
2017-05-22T11:47:08.947Z,20.80
2017-05-22T11:49:36.922Z,20.70
2017-05-22T11:52:04.556Z,21.10
2017-05-22T11:54:32.188Z,20.90
2017-05-22T11:57:00.603Z,20.70
2017-05-22T11:59:28.232Z,20.70
2017-05-22T12:01:56.926Z,20.70
2017-05-22T12:04:24.553Z,20.60
2017-05-22T12:06:52.174Z,20.80
2017-05-22T12:09:19.827Z,21.00
2017-05-22T12:11:48.227Z,21.20
2017-05-22T12:14:15.854Z,21.20
2017-05-22T12:16:43.957Z,21.20
2017-05-22T12:19:11.584Z,21.20
2017-05-22T12:21:39.981Z,21.60
2017-05-22T12:24:08.702Z,21.50
2017-05-22T12:26:36.341Z,21.50
2017-05-22T12:29:03.975Z,21.20
2017-05-22T12:31:31.629Z,20.90
2017-05-22T12:33:59.260Z,21.00
2017-05-22T12:36:27.194Z,21.00
2017-05-22T12:41:32.044Z,21.30
2017-05-22T12:43:59.669Z,21.40
2017-05-22T12:46:27.304Z,21.20
2017-05-22T12:48:55.298Z,20.90
2017-05-22T12:51:23.705Z,21.40
2017-05-22T12:53:52.101Z,21.40
2017-05-22T12:56:19.756Z,21.30
2017-05-22T12:58:47.387Z,21.40
2017-05-22T13:01:15.356Z,21.50
2017-05-22T13:03:43.142Z,21.70
2017-05-22T13:06:11.534Z,21.90
2017-05-22T13:08:39.186Z,21.80
2017-05-22T13:11:06.825Z,21.90
2017-05-22T13:13:34.818Z,21.70
2017-05-22T13:16:03.212Z,21.10
2017-05-22T13:18:30.849Z,21.00
2017-05-22T13:20:59.285Z,21.20
2017-05-22T13:23:26.912Z,21.20
2017-05-22T13:25:55.657Z,21.20
2017-05-22T13:28:24.366Z,21.20
2017-05-22T13:30:52.819Z,21.10
2017-05-22T13:33:21.274Z,21.10
2017-05-22T13:35:48.960Z,21.00
2017-05-22T13:38:17.042Z,21.10
2017-05-22T13:40:45.443Z,21.30
2017-05-22T13:43:13.130Z,21.20
2017-05-22T13:45:40.778Z,21.30
2017-05-22T13:48:09.189Z,21.20
2017-05-22T13:50:37.929Z,21.10
2017-05-22T13:53:06.315Z,21.20
2017-05-22T13:55:34.020Z,21.20
2017-05-22T13:58:02.446Z,21.20
2017-05-22T14:00:30.122Z,21.20
2017-05-22T14:02:58.108Z,21.20
2017-05-22T14:05:26.596Z,21.30
2017-05-22T14:07:59.641Z,21.30
2017-05-22T14:10:28.048Z,21.30
2017-05-22T14:12:55.701Z,21.20
2017-05-22T14:15:27.477Z,21.20
2017-05-22T14:17:55.971Z,21.10
2017-05-22T14:20:24.671Z,21.20
2017-05-22T14:22:52.343Z,21.20
2017-05-22T14:25:20.023Z,21.30
2017-05-22T14:27:47.694Z,21.30
2017-05-22T14:30:15.408Z,21.20
2017-05-22T14:32:43.376Z,21.00
2017-05-22T14:35:11.021Z,20.60
2017-05-22T14:37:38.659Z,20.60
2017-05-22T14:40:06.377Z,20.80
2017-05-22T14:42:34.001Z,20.90
2017-05-22T14:45:01.932Z,21.00
2017-05-22T14:47:29.570Z,20.90
2017-05-22T14:49:57.227Z,20.90
2017-05-22T14:52:25.676Z,20.90
2017-05-22T14:54:53.301Z,20.80
2017-05-22T14:57:21.308Z,20.80
2017-05-22T14:59:49.725Z,20.60
2017-05-22T15:02:18.141Z,20.50
2017-05-22T15:04:45.795Z,20.50
2017-05-22T15:07:13.446Z,20.60
2017-05-22T15:09:42.176Z,20.60
2017-05-22T15:12:10.588Z,20.60
2017-05-22T15:14:38.997Z,20.60
2017-05-22T15:17:07.471Z,20.70
2017-05-22T15:19:35.118Z,20.70
2017-05-22T15:22:03.875Z,20.70
2017-05-22T15:24:31.517Z,20.70
2017-05-22T15:26:59.161Z,20.80
2017-05-22T15:29:26.806Z,20.70
2017-05-22T15:31:54.445Z,20.90
2017-05-22T15:34:22.360Z,20.90
2017-05-22T15:36:50.006Z,20.80
2017-05-22T15:39:18.443Z,20.70
2017-05-22T15:41:46.097Z,20.60
2017-05-22T15:44:14.509Z,20.70
2017-05-22T15:46:42.487Z,20.70
2017-05-22T15:49:10.901Z,20.70
2017-05-22T15:51:39.309Z,20.70
2017-05-22T15:54:07.738Z,20.80
2017-05-22T15:56:36.152Z,20.80
2017-05-22T15:59:04.090Z,20.70
2017-05-22T16:01:32.548Z,20.70
2017-05-22T16:04:00.205Z,20.70
2017-05-22T16:06:28.648Z,20.80
2017-05-22T16:08:56.300Z,20.70
2017-05-22T16:11:24.285Z,20.70
2017-05-22T16:13:51.921Z,20.70
2017-05-22T16:16:20.329Z,20.70
2017-05-22T16:18:48.764Z,20.70
2017-05-22T16:21:16.404Z,20.70
2017-05-22T16:23:44.464Z,20.80
2017-05-22T16:26:12.873Z,20.80
2017-05-22T16:28:40.535Z,20.70
2017-05-22T16:31:08.190Z,20.80
2017-05-22T16:33:35.857Z,20.70
2017-05-22T16:36:03.767Z,20.70
2017-05-22T16:38:32.149Z,20.70
2017-05-22T16:41:00.494Z,20.70
2017-05-22T16:43:28.163Z,20.70
2017-05-22T16:45:55.888Z,20.60
2017-05-22T16:48:23.861Z,20.60
2017-05-22T16:50:51.513Z,20.50
2017-05-22T16:53:19.148Z,20.50
2017-05-22T16:55:46.813Z,20.50
2017-05-22T16:58:14.465Z,20.50
2017-05-22T17:00:42.473Z,20.50
2017-05-22T17:03:10.125Z,20.40
2017-05-22T17:05:37.769Z,20.40
2017-05-22T17:08:05.451Z,20.40
2017-05-22T17:10:33.867Z,20.40
2017-05-22T17:13:01.896Z,20.30
2017-05-22T17:15:30.307Z,20.40
2017-05-22T17:17:57.949Z,20.30
2017-05-22T17:20:26.385Z,20.30
2017-05-22T17:22:54.029Z,20.20
2017-05-22T17:25:21.971Z,20.30
2017-05-22T17:27:49.609Z,20.30
2017-05-22T17:30:17.255Z,20.20
2017-05-22T17:32:44.924Z,20.20
2017-05-22T17:35:13.342Z,20.20
2017-05-22T17:37:41.316Z,20.20
2017-05-22T17:40:08.965Z,20.20
2017-05-22T17:42:36.609Z,20.10
2017-05-22T17:45:04.286Z,20.10
2017-05-22T17:47:31.932Z,20.10
2017-05-22T17:49:59.965Z,20.00
2017-05-22T17:52:27.618Z,20.00
2017-05-22T17:54:55.300Z,20.00
2017-05-22T17:57:23.733Z,19.80
2017-05-22T17:59:51.376Z,19.80
2017-05-22T18:02:19.425Z,19.80
2017-05-22T18:04:47.080Z,19.80
2017-05-22T18:07:14.731Z,19.70
2017-05-22T18:09:42.407Z,19.70
2017-05-22T18:12:10.059Z,19.70
2017-05-22T18:14:38.102Z,19.60
2017-05-22T18:17:05.763Z,19.50
2017-05-22T18:19:33.430Z,19.30
2017-05-22T18:22:01.097Z,19.30
2017-05-22T18:24:29.567Z,19.10
2017-05-22T18:26:57.507Z,19.00
2017-05-22T18:29:25.165Z,19.00
2017-05-22T18:31:52.839Z,18.80
2017-05-22T18:34:20.624Z,18.70
2017-05-22T18:36:49.033Z,18.40
2017-05-22T18:39:17.033Z,18.30
2017-05-22T18:41:44.673Z,18.20
2017-05-22T18:44:12.352Z,18.10
2017-05-22T18:46:40.034Z,18.00
2017-05-22T18:49:07.689Z,17.90
2017-05-22T18:51:36.452Z,17.70
2017-05-22T18:54:04.121Z,17.60
2017-05-22T18:56:31.773Z,17.50
2017-05-22T18:58:59.443Z,17.40
2017-05-22T19:01:27.876Z,17.20
2017-05-22T19:03:56.590Z,17.00
2017-05-22T19:06:25.008Z,17.00
2017-05-22T19:08:52.650Z,16.90
2017-05-22T19:11:20.333Z,16.80
2017-05-22T19:13:47.981Z,16.70
2017-05-22T19:16:15.931Z,16.50
2017-05-22T19:18:43.581Z,16.40
2017-05-22T19:21:11.241Z,16.40
2017-05-22T19:23:39.665Z,16.20
2017-05-22T19:26:07.321Z,16.20
2017-05-22T19:28:35.283Z,16.00
2017-05-22T19:31:02.934Z,16.00
2017-05-22T19:33:30.578Z,15.80
2017-05-22T19:35:58.256Z,15.80
2017-05-22T19:38:26.734Z,15.70
2017-05-22T19:40:54.854Z,15.60
2017-05-22T19:43:22.682Z,15.60
2017-05-22T19:45:50.325Z,15.50
2017-05-22T19:48:18.026Z,15.40
2017-05-22T19:50:45.672Z,15.30
2017-05-22T19:53:13.785Z,15.20
2017-05-22T19:55:41.458Z,15.10
2017-05-22T19:58:09.926Z,14.90
2017-05-22T20:00:37.614Z,14.90
2017-05-22T20:03:05.278Z,14.80
2017-05-22T20:05:33.239Z,14.80
2017-05-22T20:08:00.911Z,14.70
2017-05-22T20:10:28.568Z,14.70
2017-05-22T20:12:56.559Z,14.60
2017-05-22T20:15:24.411Z,14.50
2017-05-22T20:17:52.377Z,14.40
2017-05-22T20:20:20.799Z,14.40
2017-05-22T20:22:48.453Z,14.30
2017-05-22T20:25:16.144Z,14.30
2017-05-22T20:27:43.820Z,14.30
2017-05-22T20:30:11.790Z,14.20
2017-05-22T20:32:40.203Z,14.20
2017-05-22T20:35:08.030Z,14.20
2017-05-22T20:37:35.710Z,14.10
2017-05-22T20:40:03.395Z,14.00
2017-05-22T20:42:31.454Z,14.00
2017-05-22T20:44:59.105Z,14.00
2017-05-22T20:47:26.764Z,14.00
2017-05-22T20:49:54.437Z,14.00
2017-05-22T20:52:22.907Z,13.90
2017-05-22T20:54:50.877Z,13.90
2017-05-22T20:57:19.535Z,13.80
2017-05-22T20:59:47.961Z,13.70
2017-05-22T21:02:15.654Z,13.70
2017-05-22T21:04:43.309Z,13.70
2017-05-22T21:07:11.784Z,13.60
2017-05-22T21:09:39.503Z,13.50
2017-05-22T21:12:07.213Z,13.50
2017-05-22T21:14:35.183Z,13.40
2017-05-22T21:17:02.827Z,13.40
2017-05-22T21:19:30.477Z,13.30
2017-05-22T21:21:59.221Z,13.20
2017-05-22T21:24:26.883Z,13.10
2017-05-22T21:26:54.596Z,13.10
2017-05-22T21:29:23.074Z,13.00
2017-05-22T21:31:50.721Z,12.90
2017-05-22T21:34:18.705Z,13.00
2017-05-22T21:36:46.349Z,12.90
2017-05-22T21:39:14.761Z,12.80
2017-05-22T21:41:43.204Z,12.80
2017-05-22T21:44:10.858Z,12.80
2017-05-22T21:46:39.581Z,12.70
2017-05-22T21:49:07.225Z,12.70
2017-05-22T21:51:34.873Z,12.70
2017-05-22T21:54:02.537Z,12.60
2017-05-22T21:56:30.192Z,12.60
2017-05-22T21:58:58.128Z,12.50
2017-05-22T22:01:25.788Z,12.50
2017-05-22T22:03:54.206Z,12.40
2017-05-22T22:06:21.872Z,12.40
2017-05-22T22:08:49.584Z,12.40
2017-05-22T22:11:18.306Z,12.30
2017-05-22T22:13:45.944Z,12.20
2017-05-22T22:16:13.589Z,12.30
2017-05-22T22:18:41.305Z,12.30
2017-05-22T22:21:08.953Z,12.30
2017-05-22T22:23:36.945Z,12.20
2017-05-22T22:26:04.595Z,12.10
2017-05-22T22:28:32.258Z,12.10
2017-05-22T22:30:59.930Z,12.00
2017-05-22T22:33:27.572Z,12.00
2017-05-22T22:35:56.261Z,11.90
2017-05-22T22:38:23.906Z,11.80
2017-05-22T22:40:51.561Z,11.80
2017-05-22T22:43:19.238Z,11.80
2017-05-22T22:45:46.880Z,11.80
2017-05-22T22:48:15.582Z,11.80
2017-05-22T22:50:43.242Z,11.70
2017-05-22T22:53:10.907Z,11.70
2017-05-22T22:55:38.580Z,11.80
2017-05-22T22:58:06.229Z,11.70
2017-05-22T23:00:35.016Z,11.50
2017-05-22T23:03:03.429Z,11.50
2017-05-22T23:05:31.069Z,11.40
2017-05-22T23:07:58.766Z,11.40
2017-05-22T23:10:26.664Z,11.50
2017-05-22T23:12:54.695Z,11.40
2017-05-22T23:15:22.350Z,11.50
2017-05-22T23:17:49.990Z,11.50
2017-05-22T23:20:17.658Z,11.40
2017-05-22T23:22:46.086Z,11.40
2017-05-22T23:25:14.059Z,11.30
2017-05-22T23:27:41.703Z,11.30
2017-05-22T23:30:09.342Z,11.20
2017-05-22T23:32:37.824Z,11.30
2017-05-22T23:35:05.452Z,11.20
2017-05-22T23:37:33.402Z,11.30
2017-05-22T23:40:01.047Z,11.20
2017-05-22T23:42:28.713Z,11.10
2017-05-22T23:44:56.415Z,11.10
2017-05-22T23:47:24.065Z,11.10
2017-05-22T23:49:52.014Z,11.00
2017-05-22T23:52:19.672Z,10.90
2017-05-22T23:54:47.334Z,10.90
2017-05-22T23:57:15.041Z,10.90
2017-05-22T23:59:42.680Z,11.00
